Terminal Aerodrome Forecast
Issued by NWS

Home | Current Version | Previous Version | Text Only | Print | Product List | Glossary On
Versions: 1 2 3 4 5 6 7 8 9 10 11 12 13 14
000
FTUS42 KMLB 300500
TAFISM
TAF
KISM 300540Z 3006/3106 VRB04KT P6SM FEW070 SCT250
     FM301900 27006KT P6SM SCT050 SCT250
     FM302200 12007KT P6SM SCT060 SCT250
     FM310200 VRB04KT P6SM SCT250
      AMD NOT SKED 3006/3011=

USA.gov is the U.S. government's official web portal to all federal, state and local government web resources and services.